createdAt,value
2023-03-16T00:00:19.265Z,1.50
2023-03-16T00:02:46.362Z,1.40
2023-03-16T00:05:15.124Z,1.55
2023-03-16T00:07:42.696Z,1.67
2023-03-16T00:10:12.722Z,1.13
2023-03-16T00:12:43.977Z,0.95
2023-03-16T00:15:12.948Z,0.95
2023-03-16T00:17:40.062Z,0.70
2023-03-16T00:20:07.899Z,0.98
2023-03-16T00:22:35.444Z,11.45
2023-03-16T00:25:02.603Z,11.20
2023-03-16T00:27:29.922Z,7.80
2023-03-16T00:29:57.262Z,13.55
2023-03-16T00:32:33.355Z,6.90
2023-03-16T00:35:02.353Z,5.68
2023-03-16T00:37:30.095Z,2.50
2023-03-16T00:39:57.516Z,3.42
2023-03-16T00:42:28.134Z,2.75
2023-03-16T00:44:57.855Z,3.83
2023-03-16T00:47:27.107Z,1.55
2023-03-16T00:49:54.621Z,2.15
2023-03-16T00:52:22.485Z,2.58
2023-03-16T00:54:50.250Z,1.02
2023-03-16T00:57:19.079Z,2.08
2023-03-16T00:59:47.335Z,0.90
2023-03-16T01:02:16.338Z,2.00
2023-03-16T01:04:44.050Z,3.67
2023-03-16T01:07:14.539Z,6.45
2023-03-16T01:09:43.348Z,3.55
2023-03-16T01:12:25.907Z,2.55
2023-03-16T01:15:03.711Z,2.63
2023-03-16T01:17:47.614Z,0.93
2023-03-16T01:20:30.239Z,0.30
2023-03-16T01:22:57.925Z,0.30
2023-03-16T01:25:35.647Z,1.35
2023-03-16T01:28:04.152Z,33.67
2023-03-16T01:30:31.386Z,47.05
2023-03-16T01:32:59.091Z,55.38
2023-03-16T01:35:48.669Z,63.78
2023-03-16T01:38:25.366Z,30.58
2023-03-16T01:41:05.170Z,17.08
2023-03-16T01:43:35.087Z,12.13
2023-03-16T01:46:05.920Z,13.00
2023-03-16T01:48:52.042Z,11.05
2023-03-16T01:51:47.459Z,12.75
2023-03-16T01:54:35.309Z,21.30
2023-03-16T01:57:32.731Z,23.52
2023-03-16T02:00:24.100Z,28.83
2023-03-16T02:02:57.312Z,22.58
2023-03-16T02:05:39.189Z,31.15
2023-03-16T02:08:09.806Z,25.13
2023-03-16T02:10:39.027Z,22.67
2023-03-16T02:13:06.221Z,23.92
2023-03-16T02:15:36.246Z,19.70
2023-03-16T02:18:04.481Z,34.42
2023-03-16T02:20:34.752Z,31.05
2023-03-16T02:23:04.310Z,33.10
2023-03-16T02:25:54.177Z,36.38
2023-03-16T02:28:39.270Z,42.22
2023-03-16T02:31:07.528Z,39.88
2023-03-16T02:33:35.976Z,34.90
2023-03-16T02:36:03.108Z,56.85
2023-03-16T02:38:30.237Z,31.42
2023-03-16T02:41:15.468Z,38.65
2023-03-16T02:43:57.862Z,28.48
2023-03-16T02:46:28.756Z,25.17
2023-03-16T02:49:07.320Z,24.30
2023-03-16T02:51:34.492Z,23.35
2023-03-16T02:54:01.686Z,17.73
2023-03-16T02:56:28.705Z,18.67
2023-03-16T02:58:58.041Z,20.80
2023-03-16T03:01:25.376Z,15.75
2023-03-16T03:03:52.541Z,17.30
2023-03-16T03:06:19.641Z,20.05
2023-03-16T03:08:46.663Z,21.60
2023-03-16T03:11:13.687Z,22.80
2023-03-16T03:13:44.741Z,17.90
2023-03-16T03:16:12.985Z,19.63
2023-03-16T03:18:40.227Z,14.68
2023-03-16T03:21:07.948Z,12.88
2023-03-16T03:23:35.748Z,8.40
2023-03-16T03:26:04.531Z,6.55
2023-03-16T03:28:34.490Z,5.07
2023-03-16T03:31:04.163Z,4.40
2023-03-16T03:33:33.932Z,8.82
2023-03-16T03:36:02.535Z,6.25
2023-03-16T03:38:29.635Z,5.15
2023-03-16T03:40:59.826Z,4.50
2023-03-16T03:43:27.128Z,4.40
2023-03-16T03:46:02.241Z,5.28
2023-03-16T03:48:30.317Z,4.95
2023-03-16T03:50:57.685Z,2.70
2023-03-16T03:53:24.930Z,3.85
2023-03-16T03:55:52.157Z,5.28
2023-03-16T03:58:19.270Z,4.75
2023-03-16T04:00:46.445Z,1.83
2023-03-16T04:03:14.517Z,3.10
2023-03-16T04:05:42.051Z,1.73
2023-03-16T04:08:09.207Z,2.85
2023-03-16T04:10:36.241Z,1.42
2023-03-16T04:13:03.353Z,2.40
2023-03-16T04:15:33.125Z,1.58
2023-03-16T04:18:00.564Z,1.15
2023-03-16T04:20:30.727Z,1.88
2023-03-16T04:23:00.676Z,1.67
2023-03-16T04:25:28.080Z,2.17
2023-03-16T04:27:55.374Z,1.88
2023-03-16T04:30:25.734Z,1.80
2023-03-16T04:32:53.053Z,4.85
2023-03-16T04:35:20.197Z,0.80
2023-03-16T04:37:53.339Z,0.68
2023-03-16T04:40:21.229Z,0.70
2023-03-16T04:42:48.655Z,1.15
2023-03-16T04:45:20.463Z,1.27
2023-03-16T04:47:47.695Z,1.83
2023-03-16T04:50:14.844Z,2.25
2023-03-16T04:52:42.402Z,4.28
2023-03-16T04:55:09.752Z,3.15
2023-03-16T04:57:36.867Z,1.98
2023-03-16T05:00:14.543Z,4.43
2023-03-16T05:02:41.888Z,4.18
2023-03-16T05:05:09.409Z,4.85
2023-03-16T05:07:36.589Z,6.63
2023-03-16T05:10:03.910Z,4.57
2023-03-16T05:12:31.168Z,3.03
2023-03-16T05:14:58.574Z,3.42
2023-03-16T05:17:25.669Z,4.07
2023-03-16T05:19:52.729Z,1.40
2023-03-16T05:22:20.366Z,2.50
2023-03-16T05:24:47.427Z,1.30
2023-03-16T05:27:14.462Z,0.95
2023-03-16T05:29:46.686Z,1.58
2023-03-16T05:32:14.174Z,1.40
2023-03-16T05:34:43.499Z,0.60
2023-03-16T05:37:11.089Z,1.55
2023-03-16T05:39:39.459Z,1.23
2023-03-16T05:42:06.959Z,2.25
2023-03-16T05:44:34.732Z,1.73
2023-03-16T05:47:08.210Z,5.90
2023-03-16T05:49:35.522Z,14.48
2023-03-16T05:52:02.558Z,12.98
2023-03-16T05:54:29.556Z,16.48
2023-03-16T05:56:56.633Z,9.93
2023-03-16T05:59:23.696Z,5.80
2023-03-16T06:01:50.888Z,2.67
2023-03-16T06:04:18.110Z,3.78
2023-03-16T06:06:45.219Z,8.02
2023-03-16T06:09:12.231Z,7.18
2023-03-16T06:11:39.793Z,5.60
2023-03-16T06:14:06.839Z,9.82
2023-03-16T06:16:33.897Z,6.65
2023-03-16T06:19:01.335Z,4.13
2023-03-16T06:21:28.373Z,9.48
2023-03-16T06:23:56.238Z,10.93
2023-03-16T06:26:23.516Z,11.52
2023-03-16T06:28:50.662Z,5.40
2023-03-16T06:31:17.857Z,5.22
2023-03-16T06:33:45.004Z,6.00
2023-03-16T06:36:12.362Z,5.15
2023-03-16T06:38:39.507Z,6.63
2023-03-16T06:41:06.596Z,3.20
2023-03-16T06:43:33.581Z,7.68
2023-03-16T06:46:01.817Z,8.35
2023-03-16T06:48:29.386Z,3.30
2023-03-16T06:50:56.720Z,3.03
2023-03-16T06:53:23.707Z,10.00
2023-03-16T06:55:51.627Z,3.05
2023-03-16T06:58:19.181Z,12.25
2023-03-16T07:00:46.359Z,15.07
2023-03-16T07:03:14.487Z,13.85
2023-03-16T07:05:41.546Z,12.60
2023-03-16T07:08:09.570Z,20.10
2023-03-16T07:10:36.608Z,13.55
2023-03-16T07:13:08.236Z,14.93
2023-03-16T07:15:35.295Z,17.55
2023-03-16T07:18:02.469Z,21.50
2023-03-16T07:20:31.742Z,16.20
2023-03-16T07:22:59.196Z,13.88
2023-03-16T07:25:26.304Z,14.48
2023-03-16T07:27:53.389Z,12.55
2023-03-16T07:30:20.538Z,14.55
2023-03-16T07:32:47.791Z,14.15
2023-03-16T07:35:14.823Z,16.10
2023-03-16T07:37:42.405Z,12.32
2023-03-16T07:40:10.271Z,11.23
2023-03-16T07:42:37.912Z,12.07
2023-03-16T07:45:05.851Z,12.73
2023-03-16T07:47:34.053Z,9.38
2023-03-16T07:50:01.650Z,13.07
2023-03-16T07:52:29.118Z,10.93
2023-03-16T07:54:56.297Z,9.10
2023-03-16T07:57:23.408Z,12.02
2023-03-16T07:59:50.483Z,13.77
2023-03-16T08:02:20.413Z,13.40
2023-03-16T08:04:47.738Z,13.90
2023-03-16T08:07:15.979Z,20.38
2023-03-16T08:09:43.112Z,16.95
2023-03-16T08:12:11.530Z,15.15
2023-03-16T08:14:38.713Z,17.70
2023-03-16T08:17:07.922Z,20.65
2023-03-16T08:19:35.269Z,17.42
2023-03-16T08:22:02.434Z,16.38
2023-03-16T08:24:31.425Z,21.58
2023-03-16T08:26:59.184Z,22.35
2023-03-16T08:29:27.130Z,17.75
2023-03-16T08:31:56.861Z,18.40
2023-03-16T08:34:25.297Z,28.02
2023-03-16T08:36:52.668Z,25.02
2023-03-16T08:39:20.678Z,35.13
2023-03-16T08:41:48.469Z,42.80
2023-03-16T08:44:15.671Z,25.95
2023-03-16T08:46:42.916Z,25.67
2023-03-16T08:49:10.237Z,20.50
2023-03-16T08:51:38.043Z,14.98
2023-03-16T08:54:05.148Z,16.92
2023-03-16T08:56:32.736Z,17.85
2023-03-16T08:59:00.057Z,24.20
2023-03-16T09:01:27.844Z,19.00
2023-03-16T09:03:55.308Z,18.02
2023-03-16T09:06:22.715Z,27.05
2023-03-16T09:08:49.764Z,21.10
2023-03-16T09:11:19.147Z,23.85
2023-03-16T09:13:47.628Z,27.42
2023-03-16T09:16:16.131Z,19.48
2023-03-16T09:18:44.367Z,14.10
2023-03-16T09:21:14.187Z,20.10
2023-03-16T09:23:43.231Z,18.95
2023-03-16T09:26:13.066Z,28.35
2023-03-16T09:28:42.625Z,22.33
2023-03-16T09:31:15.905Z,18.63
2023-03-16T09:33:43.326Z,21.67
2023-03-16T09:36:12.122Z,19.42
2023-03-16T09:38:39.652Z,22.20
2023-03-16T09:41:25.323Z,18.65
2023-03-16T09:44:17.415Z,23.27
2023-03-16T09:46:46.424Z,15.75
2023-03-16T09:49:18.139Z,23.98
2023-03-16T09:52:08.852Z,28.00
2023-03-16T09:54:49.761Z,21.20
2023-03-16T09:57:32.575Z,21.75
2023-03-16T10:00:14.754Z,25.08
2023-03-16T10:03:05.248Z,24.73
2023-03-16T10:05:34.019Z,25.23
2023-03-16T10:08:15.695Z,28.33
2023-03-16T10:11:02.306Z,24.58
2023-03-16T10:13:42.616Z,27.67
2023-03-16T10:16:17.748Z,21.02
2023-03-16T10:18:48.426Z,28.80
2023-03-16T10:21:18.675Z,32.53
2023-03-16T10:23:47.274Z,27.92
2023-03-16T10:26:23.384Z,22.85
2023-03-16T10:28:53.132Z,27.63
2023-03-16T10:31:23.319Z,26.25
2023-03-16T10:34:03.043Z,25.25
2023-03-16T10:36:36.473Z,24.65
2023-03-16T10:39:09.692Z,24.15
2023-03-16T10:41:43.486Z,16.45
2023-03-16T10:46:54.410Z,17.27
2023-03-16T10:49:28.167Z,20.40
2023-03-16T10:51:58.153Z,27.15
2023-03-16T10:54:59.343Z,31.98
2023-03-16T10:57:35.480Z,26.90
2023-03-16T11:00:15.057Z,22.85
2023-03-16T11:02:43.128Z,25.77
2023-03-16T11:05:28.595Z,22.42
2023-03-16T11:08:26.584Z,17.20
2023-03-16T11:10:59.118Z,17.35
2023-03-16T11:13:34.806Z,19.60
2023-03-16T11:16:30.820Z,25.83
2023-03-16T11:19:15.198Z,19.13
2023-03-16T11:21:55.372Z,21.42
2023-03-16T11:24:25.355Z,29.08
2023-03-16T11:27:01.998Z,22.52
2023-03-16T11:29:35.170Z,21.27
2023-03-16T11:32:06.505Z,18.30
2023-03-16T11:34:35.581Z,21.35
2023-03-16T11:37:58.066Z,23.23
2023-03-16T11:40:45.890Z,24.70
2023-03-16T11:43:38.279Z,15.88
2023-03-16T11:46:23.127Z,23.40
2023-03-16T11:49:12.418Z,15.35
2023-03-16T11:51:52.269Z,22.95
2023-03-16T11:54:45.287Z,19.55
2023-03-16T11:57:31.080Z,16.42
2023-03-16T12:00:27.324Z,12.18
2023-03-16T12:03:23.268Z,24.83
2023-03-16T12:06:24.607Z,20.27
2023-03-16T12:09:29.073Z,19.30
2023-03-16T12:12:09.191Z,15.63
2023-03-16T12:14:47.093Z,17.70
2023-03-16T12:17:31.441Z,19.30
2023-03-16T12:20:21.473Z,19.73
2023-03-16T12:22:59.645Z,18.98
2023-03-16T12:25:32.040Z,17.80
2023-03-16T12:28:02.995Z,21.80
2023-03-16T12:30:33.153Z,17.42
2023-03-16T12:33:25.520Z,16.42
2023-03-16T12:36:05.325Z,13.27
2023-03-16T12:38:46.260Z,14.52
2023-03-16T12:41:39.366Z,16.52
2023-03-16T12:44:15.558Z,15.98
2023-03-16T12:46:50.396Z,15.50
2023-03-16T12:49:17.678Z,15.95
2023-03-16T12:51:45.801Z,18.27
2023-03-16T12:54:24.560Z,14.48
2023-03-16T12:57:01.964Z,12.93
2023-03-16T12:59:43.197Z,16.40
2023-03-16T13:02:21.179Z,17.67
2023-03-16T13:05:00.141Z,17.00
2023-03-16T13:07:31.404Z,18.02
2023-03-16T13:10:12.621Z,14.75
2023-03-16T13:12:42.059Z,14.60
2023-03-16T13:15:19.648Z,16.80
2023-03-16T13:17:48.857Z,18.27
2023-03-16T13:20:37.337Z,16.70
2023-03-16T13:23:22.482Z,16.23
2023-03-16T13:26:24.246Z,13.05
2023-03-16T13:28:54.556Z,15.50
2023-03-16T13:31:21.906Z,12.18
2023-03-16T13:33:51.623Z,18.38
2023-03-16T13:36:19.275Z,17.83
2023-03-16T13:39:04.679Z,15.07
2023-03-16T13:41:31.745Z,18.38
2023-03-16T13:43:58.798Z,17.42
2023-03-16T13:46:30.508Z,22.77
2023-03-16T13:49:03.145Z,13.30
2023-03-16T13:51:34.322Z,20.00
2023-03-16T13:54:19.382Z,14.68
2023-03-16T13:56:47.148Z,14.88
2023-03-16T13:59:14.498Z,15.02
2023-03-16T14:01:45.749Z,16.40
2023-03-16T14:04:16.490Z,13.48
2023-03-16T14:06:56.464Z,19.38
2023-03-16T14:09:27.755Z,12.63
2023-03-16T14:11:55.779Z,12.70
2023-03-16T14:14:32.261Z,9.90
2023-03-16T14:17:21.942Z,15.20
2023-03-16T14:19:53.011Z,10.65
2023-03-16T14:22:24.384Z,11.95
2023-03-16T14:25:01.029Z,15.00
2023-03-16T14:27:40.160Z,11.07
2023-03-16T14:30:26.139Z,13.02
2023-03-16T14:33:07.317Z,13.90
2023-03-16T14:35:43.127Z,11.50
2023-03-16T14:38:29.277Z,11.93
2023-03-16T14:41:05.253Z,12.52
2023-03-16T14:43:39.007Z,15.15
2023-03-16T14:48:35.938Z,11.35
2023-03-16T14:51:04.703Z,10.63
2023-03-16T14:53:31.998Z,13.52
2023-03-16T14:55:59.740Z,13.25
2023-03-16T14:58:27.150Z,11.88
2023-03-16T15:00:55.174Z,11.38
2023-03-16T15:03:30.708Z,10.85
2023-03-16T15:05:57.746Z,14.82
2023-03-16T15:08:28.813Z,11.85
2023-03-16T15:11:07.275Z,12.30
2023-03-16T15:13:47.149Z,10.20
2023-03-16T15:16:15.093Z,10.10
2023-03-16T15:18:42.943Z,10.43
2023-03-16T15:21:13.150Z,10.70
2023-03-16T15:23:44.458Z,14.60
2023-03-16T15:26:16.845Z,10.65
2023-03-16T15:28:44.293Z,10.65
2023-03-16T15:31:14.786Z,11.55
2023-03-16T15:33:42.400Z,13.25
2023-03-16T15:36:18.785Z,15.65
2023-03-16T15:38:48.874Z,11.30
2023-03-16T15:41:16.639Z,14.13
2023-03-16T15:43:45.817Z,12.05
2023-03-16T15:46:13.702Z,12.45
2023-03-16T15:48:40.972Z,11.20
2023-03-16T15:51:18.134Z,7.65
2023-03-16T15:53:55.082Z,11.98
2023-03-16T15:56:29.505Z,11.57
2023-03-16T15:59:00.616Z,10.30
2023-03-16T16:01:38.664Z,10.30
2023-03-16T16:04:12.951Z,9.57
2023-03-16T16:06:40.287Z,9.88
2023-03-16T16:09:07.678Z,12.20
2023-03-16T16:11:34.838Z,11.35
2023-03-16T16:14:02.429Z,10.10
2023-03-16T16:16:31.118Z,8.07
2023-03-16T16:18:58.496Z,11.20
2023-03-16T16:21:32.267Z,10.27
2023-03-16T16:26:41.548Z,12.45
2023-03-16T16:29:24.635Z,14.40
2023-03-16T16:31:52.582Z,12.07
2023-03-16T16:34:22.072Z,10.23
2023-03-16T16:36:49.815Z,9.82
2023-03-16T16:39:17.546Z,12.63
2023-03-16T16:41:44.767Z,10.90
2023-03-16T16:44:19.188Z,12.50
2023-03-16T16:46:49.284Z,8.05
2023-03-16T16:49:26.838Z,14.45
2023-03-16T16:51:54.405Z,13.98
2023-03-16T16:54:28.921Z,13.75
2023-03-16T16:56:57.935Z,15.80
2023-03-16T16:59:46.003Z,8.23
2023-03-16T17:02:32.883Z,12.63
2023-03-16T17:05:00.122Z,16.25
2023-03-16T17:07:27.598Z,11.63
2023-03-16T17:09:55.638Z,9.05
2023-03-16T17:12:24.229Z,12.93
2023-03-16T17:14:51.922Z,17.75
2023-03-16T17:17:19.321Z,10.43
2023-03-16T17:19:47.184Z,11.20
2023-03-16T17:22:24.954Z,12.60
2023-03-16T17:24:54.247Z,16.02
2023-03-16T17:27:29.330Z,11.43
2023-03-16T17:29:57.942Z,9.32
2023-03-16T17:32:25.788Z,11.55
2023-03-16T17:34:53.044Z,10.02
2023-03-16T17:37:22.413Z,10.32
2023-03-16T17:39:49.677Z,10.65
2023-03-16T17:42:19.235Z,11.70
2023-03-16T17:44:51.354Z,12.63
2023-03-16T17:47:27.215Z,13.02
2023-03-16T17:49:54.798Z,12.15
2023-03-16T17:52:25.981Z,11.80
2023-03-16T17:54:54.206Z,16.20
2023-03-16T17:57:33.854Z,14.65
2023-03-16T18:00:03.164Z,11.70
2023-03-16T18:02:39.800Z,12.85
2023-03-16T18:05:16.468Z,14.65
2023-03-16T18:07:43.550Z,16.40
2023-03-16T18:10:19.526Z,14.02
2023-03-16T18:12:48.963Z,18.83
2023-03-16T18:15:22.032Z,10.50
2023-03-16T18:17:51.167Z,16.95
2023-03-16T18:20:28.522Z,13.57
2023-03-16T18:22:56.523Z,8.70
2023-03-16T18:25:39.318Z,15.70
2023-03-16T18:28:11.167Z,10.02
2023-03-16T18:30:39.923Z,12.38
2023-03-16T18:33:15.145Z,9.80
2023-03-16T18:35:42.167Z,11.23
2023-03-16T18:38:19.007Z,13.70
2023-03-16T18:40:47.685Z,11.63
2023-03-16T18:43:17.089Z,13.73
2023-03-16T18:45:48.113Z,11.07
2023-03-16T18:48:28.111Z,10.48
2023-03-16T18:50:56.005Z,10.73
2023-03-16T18:53:23.274Z,13.85
2023-03-16T18:55:50.984Z,10.80
2023-03-16T18:58:24.216Z,11.93
2023-03-16T19:00:55.482Z,12.65
2023-03-16T19:03:35.323Z,14.27
2023-03-16T19:06:02.563Z,12.18
2023-03-16T19:08:30.430Z,16.00
2023-03-16T19:11:02.162Z,16.80
2023-03-16T19:13:30.064Z,14.50
2023-03-16T19:15:58.072Z,17.05
2023-03-16T19:18:26.463Z,23.52
2023-03-16T19:20:55.398Z,20.52
2023-03-16T19:23:33.068Z,15.90
2023-03-16T19:26:00.217Z,11.20
2023-03-16T19:28:29.545Z,13.82
2023-03-16T19:30:57.544Z,9.43
2023-03-16T19:33:26.603Z,11.02
2023-03-16T19:35:55.541Z,9.20
2023-03-16T19:38:24.384Z,12.55
2023-03-16T19:41:00.591Z,11.60
2023-03-16T19:43:28.964Z,14.52
2023-03-16T19:45:56.857Z,9.85
2023-03-16T19:48:34.180Z,11.63
2023-03-16T19:51:02.153Z,14.32
2023-03-16T19:53:29.253Z,13.48
2023-03-16T19:55:56.686Z,12.32
2023-03-16T19:58:41.865Z,17.67
2023-03-16T20:01:22.369Z,14.52
2023-03-16T20:03:50.383Z,12.93
2023-03-16T20:06:20.870Z,20.75
2023-03-16T20:08:49.460Z,9.93
2023-03-16T20:11:22.310Z,13.82
2023-03-16T20:13:50.532Z,11.85
2023-03-16T20:16:30.210Z,12.85
2023-03-16T20:19:00.673Z,17.55
2023-03-16T20:21:28.350Z,12.35
2023-03-16T20:23:55.993Z,24.65
2023-03-16T20:26:27.071Z,52.97
2023-03-16T20:28:54.317Z,33.30
2023-03-16T20:31:23.950Z,25.95
2023-03-16T20:33:52.631Z,28.15
2023-03-16T20:36:21.858Z,20.98
2023-03-16T20:38:49.542Z,27.58
2023-03-16T20:41:19.387Z,22.88
2023-03-16T20:43:46.742Z,23.63
2023-03-16T20:46:19.887Z,20.05
2023-03-16T20:48:47.204Z,20.52
2023-03-16T20:51:16.527Z,27.13
2023-03-16T20:53:48.047Z,25.23
2023-03-16T20:56:21.309Z,24.95
2023-03-16T20:58:50.277Z,24.70
2023-03-16T21:01:21.950Z,28.55
2023-03-16T21:03:50.943Z,28.23
2023-03-16T21:06:23.788Z,30.40
2023-03-16T21:08:55.675Z,30.27
2023-03-16T21:11:39.365Z,22.08
2023-03-16T21:14:14.403Z,19.27
2023-03-16T21:16:41.617Z,22.02
2023-03-16T21:19:20.341Z,22.98
2023-03-16T21:21:47.448Z,20.95
2023-03-16T21:24:14.532Z,21.45
2023-03-16T21:26:43.125Z,20.83
2023-03-16T21:29:17.971Z,19.05
2023-03-16T21:31:45.256Z,12.85
2023-03-16T21:34:24.497Z,17.92
2023-03-16T21:36:52.014Z,12.45
2023-03-16T21:39:22.725Z,16.17
2023-03-16T21:41:50.998Z,14.13
2023-03-16T21:44:18.707Z,15.05
2023-03-16T21:46:47.570Z,15.48
2023-03-16T21:49:16.072Z,12.23
2023-03-16T21:51:43.552Z,13.93
2023-03-16T21:54:18.142Z,10.00
2023-03-16T21:56:46.758Z,12.82
2023-03-16T21:59:14.102Z,12.30
2023-03-16T22:01:58.228Z,10.88
2023-03-16T22:04:28.977Z,13.70
2023-03-16T22:06:56.001Z,7.97
2023-03-16T22:09:25.168Z,8.65
2023-03-16T22:11:52.468Z,9.32
2023-03-16T22:14:19.530Z,7.53
2023-03-16T22:16:46.776Z,6.78
2023-03-16T22:19:18.388Z,6.90
2023-03-16T22:21:47.464Z,7.93
2023-03-16T22:24:18.266Z,12.18
2023-03-16T22:26:46.676Z,12.35
2023-03-16T22:29:26.718Z,16.42
2023-03-16T22:32:01.718Z,14.73
2023-03-16T22:34:37.884Z,16.33
2023-03-16T22:37:05.932Z,20.50
2023-03-16T22:39:37.995Z,23.40
2023-03-16T22:42:25.277Z,26.20
2023-03-16T22:44:52.342Z,16.80
2023-03-16T22:47:24.439Z,17.05
2023-03-16T22:49:51.822Z,13.93
2023-03-16T22:52:19.076Z,5.85
2023-03-16T22:54:47.908Z,4.15
2023-03-16T22:57:17.246Z,4.55
2023-03-16T22:59:46.145Z,4.82
2023-03-16T23:02:20.029Z,5.38
2023-03-16T23:07:15.228Z,4.00
2023-03-16T23:09:42.385Z,3.92
2023-03-16T23:12:19.992Z,2.97
2023-03-16T23:14:47.086Z,4.18
2023-03-16T23:17:19.549Z,3.67
2023-03-16T23:19:48.383Z,2.70
2023-03-16T23:22:16.358Z,3.20
2023-03-16T23:24:43.404Z,2.25
2023-03-16T23:27:19.157Z,2.38
2023-03-16T23:29:46.912Z,4.22
2023-03-16T23:32:17.185Z,2.67
2023-03-16T23:34:44.731Z,2.47
2023-03-16T23:37:12.208Z,3.72
2023-03-16T23:39:40.152Z,5.43
2023-03-16T23:42:07.560Z,7.15
2023-03-16T23:44:35.078Z,6.00
2023-03-16T23:47:02.587Z,7.75
2023-03-16T23:49:33.162Z,5.97
2023-03-16T23:52:01.987Z,7.05
2023-03-16T23:54:31.983Z,8.82
2023-03-16T23:56:59.278Z,5.25
2023-03-16T23:59:29.425Z,5.78
